sensor_id;sensor_type;location;lat;lon;timestamp;P1;durP1;ratioP1;P2;durP2;ratioP2
76176;SDS011;64938;47.696;8.066;2023-07-29T00:00:56;2.17;;;2.00;;
76176;SDS011;64938;47.696;8.066;2023-07-29T00:03:25;4.00;;;1.83;;
76176;SDS011;64938;47.696;8.066;2023-07-29T00:05:50;2.73;;;2.20;;
76176;SDS011;64938;47.696;8.066;2023-07-29T00:08:16;3.67;;;2.03;;
76176;SDS011;64938;47.696;8.066;2023-07-29T00:10:42;1.73;;;1.63;;
76176;SDS011;64938;47.696;8.066;2023-07-29T00:13:07;2.40;;;2.20;;
76176;SDS011;64938;47.696;8.066;2023-07-29T00:15:33;2.10;;;2.00;;
76176;SDS011;64938;47.696;8.066;2023-07-29T00:17:59;2.10;;;1.90;;
76176;SDS011;64938;47.696;8.066;2023-07-29T00:20:24;2.37;;;2.17;;
76176;SDS011;64938;47.696;8.066;2023-07-29T00:22:50;2.20;;;2.00;;
76176;SDS011;64938;47.696;8.066;2023-07-29T00:25:19;2.30;;;2.00;;
76176;SDS011;64938;47.696;8.066;2023-07-29T00:27:46;2.07;;;1.87;;
76176;SDS011;64938;47.696;8.066;2023-07-29T00:30:11;3.10;;;1.90;;
76176;SDS011;64938;47.696;8.066;2023-07-29T00:32:37;2.30;;;2.20;;
76176;SDS011;64938;47.696;8.066;2023-07-29T00:35:02;3.70;;;1.90;;
76176;SDS011;64938;47.696;8.066;2023-07-29T00:37:31;3.13;;;2.60;;
76176;SDS011;64938;47.696;8.066;2023-07-29T00:39:59;2.27;;;2.13;;
76176;SDS011;64938;47.696;8.066;2023-07-29T00:42:25;2.17;;;2.00;;
76176;SDS011;64938;47.696;8.066;2023-07-29T00:44:53;3.40;;;2.37;;
76176;SDS011;64938;47.696;8.066;2023-07-29T00:47:19;2.10;;;2.00;;
76176;SDS011;64938;47.696;8.066;2023-07-29T00:49:45;4.80;;;2.47;;
76176;SDS011;64938;47.696;8.066;2023-07-29T00:52:11;2.80;;;2.60;;
76176;SDS011;64938;47.696;8.066;2023-07-29T00:54:40;2.60;;;2.23;;
76176;SDS011;64938;47.696;8.066;2023-07-29T00:57:08;2.33;;;2.20;;
76176;SDS011;64938;47.696;8.066;2023-07-29T00:59:36;2.47;;;2.27;;
76176;SDS011;64938;47.696;8.066;2023-07-29T01:02:03;2.93;;;2.73;;
76176;SDS011;64938;47.696;8.066;2023-07-29T01:04:29;4.20;;;2.70;;
76176;SDS011;64938;47.696;8.066;2023-07-29T01:06:58;1.97;;;1.87;;
76176;SDS011;64938;47.696;8.066;2023-07-29T01:09:49;2.60;;;2.40;;
76176;SDS011;64938;47.696;8.066;2023-07-29T01:14:59;2.70;;;2.47;;
76176;SDS011;64938;47.696;8.066;2023-07-29T01:17:46;3.70;;;2.57;;
76176;SDS011;64938;47.696;8.066;2023-07-29T01:20:14;2.90;;;2.53;;
76176;SDS011;64938;47.696;8.066;2023-07-29T01:22:40;2.90;;;2.70;;
76176;SDS011;64938;47.696;8.066;2023-07-29T01:25:06;2.57;;;2.37;;
76176;SDS011;64938;47.696;8.066;2023-07-29T01:27:32;2.60;;;2.40;;
76176;SDS011;64938;47.696;8.066;2023-07-29T01:29:58;2.63;;;2.43;;
76176;SDS011;64938;47.696;8.066;2023-07-29T01:38:03;3.43;;;3.13;;
76176;SDS011;64938;47.696;8.066;2023-07-29T01:40:38;3.20;;;3.00;;
76176;SDS011;64938;47.696;8.066;2023-07-29T01:43:05;2.70;;;2.50;;
76176;SDS011;64938;47.696;8.066;2023-07-29T01:45:32;3.20;;;2.90;;
76176;SDS011;64938;47.696;8.066;2023-07-29T01:48:01;3.67;;;3.37;;
76176;SDS011;64938;47.696;8.066;2023-07-29T01:50:27;3.20;;;2.93;;
76176;SDS011;64938;47.696;8.066;2023-07-29T01:52:52;3.53;;;3.23;;
76176;SDS011;64938;47.696;8.066;2023-07-29T01:55:18;3.17;;;2.97;;
76176;SDS011;64938;47.696;8.066;2023-07-29T01:57:43;3.00;;;2.80;;
76176;SDS011;64938;47.696;8.066;2023-07-29T02:00:10;5.23;;;2.97;;
76176;SDS011;64938;47.696;8.066;2023-07-29T02:02:35;4.70;;;2.90;;
76176;SDS011;64938;47.696;8.066;2023-07-29T02:05:01;5.17;;;3.20;;
76176;SDS011;64938;47.696;8.066;2023-07-29T02:07:27;3.83;;;3.53;;
76176;SDS011;64938;47.696;8.066;2023-07-29T02:09:55;3.27;;;3.03;;
76176;SDS011;64938;47.696;8.066;2023-07-29T02:12:21;7.17;;;3.53;;
76176;SDS011;64938;47.696;8.066;2023-07-29T02:14:46;3.93;;;3.63;;
76176;SDS011;64938;47.696;8.066;2023-07-29T02:17:12;5.60;;;3.43;;
76176;SDS011;64938;47.696;8.066;2023-07-29T02:19:37;3.40;;;3.10;;
76176;SDS011;64938;47.696;8.066;2023-07-29T02:22:03;3.57;;;3.27;;
76176;SDS011;64938;47.696;8.066;2023-07-29T02:24:29;3.90;;;3.60;;
76176;SDS011;64938;47.696;8.066;2023-07-29T02:26:54;3.13;;;2.93;;
76176;SDS011;64938;47.696;8.066;2023-07-29T02:29:20;3.93;;;3.63;;
76176;SDS011;64938;47.696;8.066;2023-07-29T02:31:46;3.87;;;3.50;;
76176;SDS011;64938;47.696;8.066;2023-07-29T02:34:12;4.13;;;3.73;;
76176;SDS011;64938;47.696;8.066;2023-07-29T02:36:38;3.90;;;3.60;;
76176;SDS011;64938;47.696;8.066;2023-07-29T02:39:04;4.07;;;3.67;;
76176;SDS011;64938;47.696;8.066;2023-07-29T02:41:31;3.23;;;2.93;;
76176;SDS011;64938;47.696;8.066;2023-07-29T02:43:56;3.70;;;3.30;;
76176;SDS011;64938;47.696;8.066;2023-07-29T02:46:29;3.30;;;3.00;;
76176;SDS011;64938;47.696;8.066;2023-07-29T02:48:55;2.83;;;2.57;;
76176;SDS011;64938;47.696;8.066;2023-07-29T02:51:20;3.13;;;2.50;;
76176;SDS011;64938;47.696;8.066;2023-07-29T02:53:45;2.70;;;2.50;;
76176;SDS011;64938;47.696;8.066;2023-07-29T02:56:11;3.20;;;3.00;;
76176;SDS011;64938;47.696;8.066;2023-07-29T02:58:37;2.80;;;2.60;;
76176;SDS011;64938;47.696;8.066;2023-07-29T03:01:05;3.00;;;2.67;;
76176;SDS011;64938;47.696;8.066;2023-07-29T03:03:31;3.17;;;2.87;;
76176;SDS011;64938;47.696;8.066;2023-07-29T03:06:05;2.83;;;2.63;;
76176;SDS011;64938;47.696;8.066;2023-07-29T03:08:39;4.13;;;2.90;;
76176;SDS011;64938;47.696;8.066;2023-07-29T03:11:09;3.00;;;2.80;;
76176;SDS011;64938;47.696;8.066;2023-07-29T03:13:36;2.83;;;2.60;;
76176;SDS011;64938;47.696;8.066;2023-07-29T03:16:10;3.37;;;2.63;;
76176;SDS011;64938;47.696;8.066;2023-07-29T03:18:37;7.33;;;3.30;;
76176;SDS011;64938;47.696;8.066;2023-07-29T03:21:04;2.97;;;2.73;;
76176;SDS011;64938;47.696;8.066;2023-07-29T03:23:30;3.23;;;3.03;;
76176;SDS011;64938;47.696;8.066;2023-07-29T03:25:58;3.80;;;2.90;;
76176;SDS011;64938;47.696;8.066;2023-07-29T03:28:25;3.47;;;3.17;;
76176;SDS011;64938;47.696;8.066;2023-07-29T03:30:52;3.20;;;3.00;;
76176;SDS011;64938;47.696;8.066;2023-07-29T03:33:21;3.90;;;3.20;;
76176;SDS011;64938;47.696;8.066;2023-07-29T03:35:47;3.50;;;3.20;;
76176;SDS011;64938;47.696;8.066;2023-07-29T03:38:12;4.07;;;3.37;;
76176;SDS011;64938;47.696;8.066;2023-07-29T03:40:38;3.33;;;3.07;;
76176;SDS011;64938;47.696;8.066;2023-07-29T03:43:04;3.93;;;3.63;;
76176;SDS011;64938;47.696;8.066;2023-07-29T03:45:30;3.90;;;3.60;;
76176;SDS011;64938;47.696;8.066;2023-07-29T03:47:56;3.97;;;3.67;;
76176;SDS011;64938;47.696;8.066;2023-07-29T03:50:21;4.57;;;4.17;;
76176;SDS011;64938;47.696;8.066;2023-07-29T03:52:47;4.93;;;3.77;;
76176;SDS011;64938;47.696;8.066;2023-07-29T03:55:12;3.90;;;3.60;;
76176;SDS011;64938;47.696;8.066;2023-07-29T03:57:41;4.43;;;4.13;;
76176;SDS011;64938;47.696;8.066;2023-07-29T04:00:09;4.03;;;3.73;;
76176;SDS011;64938;47.696;8.066;2023-07-29T04:02:35;4.20;;;3.80;;
76176;SDS011;64938;47.696;8.066;2023-07-29T04:05:04;4.20;;;3.80;;
76176;SDS011;64938;47.696;8.066;2023-07-29T04:07:31;3.97;;;3.67;;
76176;SDS011;64938;47.696;8.066;2023-07-29T04:10:00;3.70;;;3.40;;
76176;SDS011;64938;47.696;8.066;2023-07-29T04:12:26;3.80;;;3.50;;
76176;SDS011;64938;47.696;8.066;2023-07-29T04:14:52;4.07;;;3.77;;
76176;SDS011;64938;47.696;8.066;2023-07-29T04:17:21;5.70;;;3.30;;
76176;SDS011;64938;47.696;8.066;2023-07-29T04:19:46;3.93;;;3.47;;
76176;SDS011;64938;47.696;8.066;2023-07-29T04:22:12;4.43;;;4.03;;
76176;SDS011;64938;47.696;8.066;2023-07-29T04:24:37;4.00;;;3.30;;
76176;SDS011;64938;47.696;8.066;2023-07-29T04:27:03;3.87;;;3.57;;
76176;SDS011;64938;47.696;8.066;2023-07-29T04:29:31;4.47;;;4.17;;
76176;SDS011;64938;47.696;8.066;2023-07-29T04:31:57;4.30;;;3.93;;
76176;SDS011;64938;47.696;8.066;2023-07-29T04:34:26;4.27;;;3.90;;
76176;SDS011;64938;47.696;8.066;2023-07-29T04:36:51;3.63;;;3.33;;
76176;SDS011;64938;47.696;8.066;2023-07-29T04:39:17;3.73;;;3.40;;
76176;SDS011;64938;47.696;8.066;2023-07-29T04:41:46;3.90;;;3.03;;
76176;SDS011;64938;47.696;8.066;2023-07-29T04:44:12;3.80;;;3.50;;
76176;SDS011;64938;47.696;8.066;2023-07-29T04:46:37;4.17;;;3.77;;
76176;SDS011;64938;47.696;8.066;2023-07-29T04:49:04;4.00;;;3.60;;
76176;SDS011;64938;47.696;8.066;2023-07-29T04:51:29;5.20;;;3.60;;
76176;SDS011;64938;47.696;8.066;2023-07-29T04:53:56;3.70;;;3.40;;
76176;SDS011;64938;47.696;8.066;2023-07-29T04:56:25;3.17;;;2.97;;
76176;SDS011;64938;47.696;8.066;2023-07-29T04:58:51;3.37;;;3.13;;
76176;SDS011;64938;47.696;8.066;2023-07-29T05:01:19;6.03;;;3.83;;
76176;SDS011;64938;47.696;8.066;2023-07-29T05:03:44;3.93;;;3.63;;
76176;SDS011;64938;47.696;8.066;2023-07-29T05:06:13;3.40;;;3.20;;
76176;SDS011;64938;47.696;8.066;2023-07-29T05:08:38;3.13;;;2.93;;
76176;SDS011;64938;47.696;8.066;2023-07-29T05:11:07;3.40;;;3.10;;
76176;SDS011;64938;47.696;8.066;2023-07-29T05:13:32;3.37;;;3.10;;
76176;SDS011;64938;47.696;8.066;2023-07-29T05:15:58;3.20;;;3.00;;
76176;SDS011;64938;47.696;8.066;2023-07-29T05:18:24;3.00;;;2.60;;
76176;SDS011;64938;47.696;8.066;2023-07-29T05:20:49;4.00;;;2.40;;
76176;SDS011;64938;47.696;8.066;2023-07-29T05:23:18;2.60;;;2.40;;
76176;SDS011;64938;47.696;8.066;2023-07-29T05:25:43;2.70;;;2.50;;
76176;SDS011;64938;47.696;8.066;2023-07-29T05:28:14;2.47;;;2.27;;
76176;SDS011;64938;47.696;8.066;2023-07-29T05:30:40;2.67;;;2.47;;
76176;SDS011;64938;47.696;8.066;2023-07-29T05:33:05;2.73;;;2.53;;
76176;SDS011;64938;47.696;8.066;2023-07-29T05:35:34;2.77;;;2.47;;
76176;SDS011;64938;47.696;8.066;2023-07-29T05:38:00;2.57;;;2.40;;
76176;SDS011;64938;47.696;8.066;2023-07-29T05:40:25;3.23;;;2.30;;
76176;SDS011;64938;47.696;8.066;2023-07-29T05:42:51;2.70;;;2.50;;
76176;SDS011;64938;47.696;8.066;2023-07-29T05:45:16;2.57;;;2.37;;
76176;SDS011;64938;47.696;8.066;2023-07-29T05:47:42;2.20;;;2.10;;
76176;SDS011;64938;47.696;8.066;2023-07-29T05:50:08;2.27;;;2.07;;
76176;SDS011;64938;47.696;8.066;2023-07-29T05:52:34;2.40;;;2.20;;
76176;SDS011;64938;47.696;8.066;2023-07-29T05:55:00;2.77;;;2.30;;
76176;SDS011;64938;47.696;8.066;2023-07-29T05:57:26;2.63;;;2.23;;
76176;SDS011;64938;47.696;8.066;2023-07-29T05:59:52;2.27;;;2.13;;
76176;SDS011;64938;47.696;8.066;2023-07-29T06:02:18;2.10;;;2.00;;
76176;SDS011;64938;47.696;8.066;2023-07-29T06:04:44;3.03;;;2.40;;
76176;SDS011;64938;47.696;8.066;2023-07-29T06:07:10;5.37;;;2.17;;
76176;SDS011;64938;47.696;8.066;2023-07-29T06:09:36;2.93;;;2.13;;
76176;SDS011;64938;47.696;8.066;2023-07-29T06:12:01;3.57;;;2.27;;
76176;SDS011;64938;47.696;8.066;2023-07-29T06:14:27;2.70;;;2.30;;
76176;SDS011;64938;47.696;8.066;2023-07-29T06:16:53;2.00;;;1.80;;
76176;SDS011;64938;47.696;8.066;2023-07-29T06:19:19;2.80;;;2.60;;
76176;SDS011;64938;47.696;8.066;2023-07-29T06:21:45;2.50;;;2.30;;
76176;SDS011;64938;47.696;8.066;2023-07-29T06:24:13;2.87;;;2.67;;
76176;SDS011;64938;47.696;8.066;2023-07-29T06:26:39;2.50;;;2.30;;
76176;SDS011;64938;47.696;8.066;2023-07-29T06:29:07;2.50;;;2.30;;
76176;SDS011;64938;47.696;8.066;2023-07-29T06:31:33;2.70;;;2.50;;
76176;SDS011;64938;47.696;8.066;2023-07-29T06:33:59;2.97;;;2.70;;
76176;SDS011;64938;47.696;8.066;2023-07-29T06:36:24;3.13;;;2.10;;
76176;SDS011;64938;47.696;8.066;2023-07-29T06:38:50;2.47;;;2.27;;
76176;SDS011;64938;47.696;8.066;2023-07-29T06:41:15;2.67;;;2.40;;
76176;SDS011;64938;47.696;8.066;2023-07-29T06:43:41;2.33;;;2.10;;
76176;SDS011;64938;47.696;8.066;2023-07-29T06:46:07;2.30;;;2.10;;
76176;SDS011;64938;47.696;8.066;2023-07-29T06:48:36;2.33;;;1.95;;
76176;SDS011;64938;47.696;8.066;2023-07-29T06:51:03;2.13;;;1.92;;
76176;SDS011;64938;47.696;8.066;2023-07-29T06:53:29;1.88;;;1.77;;
76176;SDS011;64938;47.696;8.066;2023-07-29T06:55:57;1.90;;;1.80;;
76176;SDS011;64938;47.696;8.066;2023-07-29T06:58:23;1.92;;;1.83;;
76176;SDS011;64938;47.696;8.066;2023-07-29T07:00:55;1.80;;;1.70;;
76176;SDS011;64938;47.696;8.066;2023-07-29T07:03:21;2.30;;;2.10;;
76176;SDS011;64938;47.696;8.066;2023-07-29T07:05:46;2.50;;;2.30;;
76176;SDS011;64938;47.696;8.066;2023-07-29T07:08:12;2.60;;;2.40;;
76176;SDS011;64938;47.696;8.066;2023-07-29T07:10:41;2.53;;;2.33;;
76176;SDS011;64938;47.696;8.066;2023-07-29T07:13:06;2.30;;;2.10;;
76176;SDS011;64938;47.696;8.066;2023-07-29T07:15:32;6.30;;;2.20;;
76176;SDS011;64938;47.696;8.066;2023-07-29T07:17:57;2.63;;;2.43;;
76176;SDS011;64938;47.696;8.066;2023-07-29T07:20:23;2.20;;;2.10;;
76176;SDS011;64938;47.696;8.066;2023-07-29T07:22:49;2.03;;;1.75;;
76176;SDS011;64938;47.696;8.066;2023-07-29T07:25:14;2.00;;;1.90;;
76176;SDS011;64938;47.696;8.066;2023-07-29T07:27:40;2.88;;;2.28;;
76176;SDS011;64938;47.696;8.066;2023-07-29T07:30:07;1.80;;;1.70;;
76176;SDS011;64938;47.696;8.066;2023-07-29T07:32:34;2.10;;;2.00;;
76176;SDS011;64938;47.696;8.066;2023-07-29T07:35:03;2.95;;;2.42;;
76176;SDS011;64938;47.696;8.066;2023-07-29T07:37:29;2.70;;;2.50;;
76176;SDS011;64938;47.696;8.066;2023-07-29T07:39:55;2.67;;;2.40;;
76176;SDS011;64938;47.696;8.066;2023-07-29T07:42:21;2.40;;;2.20;;
76176;SDS011;64938;47.696;8.066;2023-07-29T07:44:46;2.67;;;2.47;;
76176;SDS011;64938;47.696;8.066;2023-07-29T07:47:12;2.80;;;2.40;;
76176;SDS011;64938;47.696;8.066;2023-07-29T07:49:38;3.20;;;2.33;;
76176;SDS011;64938;47.696;8.066;2023-07-29T07:52:03;2.63;;;2.43;;
76176;SDS011;64938;47.696;8.066;2023-07-29T07:54:29;2.60;;;2.40;;
76176;SDS011;64938;47.696;8.066;2023-07-29T07:56:55;3.57;;;2.63;;
76176;SDS011;64938;47.696;8.066;2023-07-29T07:59:21;2.33;;;2.23;;
76176;SDS011;64938;47.696;8.066;2023-07-29T08:01:46;2.40;;;2.30;;
76176;SDS011;64938;47.696;8.066;2023-07-29T08:04:12;2.80;;;2.60;;
76176;SDS011;64938;47.696;8.066;2023-07-29T08:06:39;3.67;;;2.93;;
76176;SDS011;64938;47.696;8.066;2023-07-29T08:09:05;2.90;;;2.70;;
76176;SDS011;64938;47.696;8.066;2023-07-29T08:11:30;2.37;;;2.20;;
76176;SDS011;64938;47.696;8.066;2023-07-29T08:13:56;2.43;;;2.23;;
76176;SDS011;64938;47.696;8.066;2023-07-29T08:16:21;2.70;;;2.50;;
76176;SDS011;64938;47.696;8.066;2023-07-29T08:18:47;2.50;;;2.30;;
76176;SDS011;64938;47.696;8.066;2023-07-29T08:21:13;2.97;;;2.67;;
76176;SDS011;64938;47.696;8.066;2023-07-29T08:23:41;3.33;;;2.60;;
76176;SDS011;64938;47.696;8.066;2023-07-29T08:26:06;3.07;;;2.40;;
76176;SDS011;64938;47.696;8.066;2023-07-29T08:28:33;3.47;;;2.50;;
76176;SDS011;64938;47.696;8.066;2023-07-29T08:31:21;2.93;;;2.73;;
76176;SDS011;64938;47.696;8.066;2023-07-29T08:33:47;2.70;;;2.47;;
76176;SDS011;64938;47.696;8.066;2023-07-29T08:36:15;2.57;;;2.37;;
76176;SDS011;64938;47.696;8.066;2023-07-29T08:38:41;3.37;;;2.50;;
76176;SDS011;64938;47.696;8.066;2023-07-29T08:41:13;4.60;;;2.50;;
76176;SDS011;64938;47.696;8.066;2023-07-29T08:43:42;2.30;;;2.10;;
76176;SDS011;64938;47.696;8.066;2023-07-29T08:46:18;2.40;;;2.20;;
76176;SDS011;64938;47.696;8.066;2023-07-29T08:48:45;2.17;;;2.07;;
76176;SDS011;64938;47.696;8.066;2023-07-29T08:51:16;2.50;;;2.22;;
76176;SDS011;64938;47.696;8.066;2023-07-29T08:53:42;1.92;;;1.83;;
76176;SDS011;64938;47.696;8.066;2023-07-29T08:56:08;2.40;;;2.20;;
76176;SDS011;64938;47.696;8.066;2023-07-29T08:58:34;2.97;;;2.05;;
76176;SDS011;64938;47.696;8.066;2023-07-29T09:01:00;2.97;;;2.55;;
76176;SDS011;64938;47.696;8.066;2023-07-29T09:03:26;2.80;;;2.13;;
76176;SDS011;64938;47.696;8.066;2023-07-29T09:05:52;2.73;;;2.53;;
76176;SDS011;64938;47.696;8.066;2023-07-29T09:08:18;3.10;;;2.80;;
76176;SDS011;64938;47.696;8.066;2023-07-29T09:10:44;10.97;;;2.50;;
76176;SDS011;64938;47.696;8.066;2023-07-29T09:13:10;2.50;;;2.30;;
76176;SDS011;64938;47.696;8.066;2023-07-29T09:15:38;2.43;;;2.23;;
76176;SDS011;64938;47.696;8.066;2023-07-29T09:18:17;2.73;;;2.53;;
76176;SDS011;64938;47.696;8.066;2023-07-29T09:20:50;2.60;;;2.40;;
76176;SDS011;64938;47.696;8.066;2023-07-29T09:23:19;3.97;;;2.47;;
76176;SDS011;64938;47.696;8.066;2023-07-29T09:25:47;3.83;;;2.60;;
76176;SDS011;64938;47.696;8.066;2023-07-29T09:28:14;2.80;;;2.60;;
76176;SDS011;64938;47.696;8.066;2023-07-29T09:30:47;3.30;;;3.00;;
76176;SDS011;64938;47.696;8.066;2023-07-29T09:33:17;3.07;;;2.87;;
76176;SDS011;64938;47.696;8.066;2023-07-29T09:35:47;3.40;;;3.10;;
76176;SDS011;64938;47.696;8.066;2023-07-29T09:38:14;3.00;;;2.80;;
76176;SDS011;64938;47.696;8.066;2023-07-29T09:40:40;3.70;;;3.13;;
76176;SDS011;64938;47.696;8.066;2023-07-29T09:43:07;3.90;;;3.50;;
76176;SDS011;64938;47.696;8.066;2023-07-29T09:45:34;4.80;;;3.57;;
76176;SDS011;64938;47.696;8.066;2023-07-29T09:48:04;3.50;;;3.20;;
76176;SDS011;64938;47.696;8.066;2023-07-29T09:50:34;5.23;;;3.10;;
76176;SDS011;64938;47.696;8.066;2023-07-29T09:53:01;3.00;;;2.80;;
76176;SDS011;64938;47.696;8.066;2023-07-29T09:55:32;3.60;;;3.30;;
76176;SDS011;64938;47.696;8.066;2023-07-29T09:58:00;3.43;;;3.13;;
76176;SDS011;64938;47.696;8.066;2023-07-29T10:00:28;3.50;;;3.20;;
76176;SDS011;64938;47.696;8.066;2023-07-29T10:02:59;3.30;;;3.03;;
76176;SDS011;64938;47.696;8.066;2023-07-29T10:05:27;3.40;;;3.20;;
76176;SDS011;64938;47.696;8.066;2023-07-29T10:07:57;3.40;;;3.10;;
76176;SDS011;64938;47.696;8.066;2023-07-29T10:10:23;3.10;;;2.90;;
76176;SDS011;64938;47.696;8.066;2023-07-29T10:12:58;3.27;;;2.97;;
76176;SDS011;64938;47.696;8.066;2023-07-29T10:15:23;3.63;;;3.30;;
76176;SDS011;64938;47.696;8.066;2023-07-29T10:17:49;3.33;;;3.13;;
76176;SDS011;64938;47.696;8.066;2023-07-29T10:20:17;3.53;;;2.97;;
76176;SDS011;64938;47.696;8.066;2023-07-29T10:22:43;3.00;;;2.80;;
76176;SDS011;64938;47.696;8.066;2023-07-29T10:25:21;3.30;;;3.00;;
76176;SDS011;64938;47.696;8.066;2023-07-29T10:27:55;3.27;;;3.07;;
76176;SDS011;64938;47.696;8.066;2023-07-29T10:30:25;3.67;;;3.37;;
76176;SDS011;64938;47.696;8.066;2023-07-29T10:32:53;3.23;;;2.93;;
76176;SDS011;64938;47.696;8.066;2023-07-29T10:35:19;3.43;;;3.23;;
76176;SDS011;64938;47.696;8.066;2023-07-29T10:37:45;3.60;;;3.27;;
76176;SDS011;64938;47.696;8.066;2023-07-29T10:40:11;2.90;;;2.70;;
76176;SDS011;64938;47.696;8.066;2023-07-29T10:42:37;3.37;;;3.17;;
76176;SDS011;64938;47.696;8.066;2023-07-29T10:45:19;3.47;;;3.27;;
76176;SDS011;64938;47.696;8.066;2023-07-29T10:47:45;4.23;;;3.93;;
76176;SDS011;64938;47.696;8.066;2023-07-29T10:50:19;3.60;;;3.30;;
76176;SDS011;64938;47.696;8.066;2023-07-29T10:52:51;3.97;;;3.67;;
76176;SDS011;64938;47.696;8.066;2023-07-29T10:55:25;3.33;;;2.90;;
76176;SDS011;64938;47.696;8.066;2023-07-29T10:57:51;3.47;;;3.17;;
76176;SDS011;64938;47.696;8.066;2023-07-29T11:00:30;2.97;;;2.73;;
76176;SDS011;64938;47.696;8.066;2023-07-29T11:02:58;3.50;;;3.20;;
76176;SDS011;64938;47.696;8.066;2023-07-29T11:05:52;3.33;;;3.10;;
76176;SDS011;64938;47.696;8.066;2023-07-29T11:08:21;2.87;;;2.67;;
76176;SDS011;64938;47.696;8.066;2023-07-29T11:11:02;2.70;;;2.50;;
76176;SDS011;64938;47.696;8.066;2023-07-29T11:13:30;3.13;;;2.83;;
76176;SDS011;64938;47.696;8.066;2023-07-29T11:16:00;4.17;;;2.90;;
76176;SDS011;64938;47.696;8.066;2023-07-29T11:18:29;2.83;;;2.63;;
76176;SDS011;64938;47.696;8.066;2023-07-29T11:21:04;2.60;;;2.40;;
76176;SDS011;64938;47.696;8.066;2023-07-29T11:23:33;3.17;;;2.80;;
76176;SDS011;64938;47.696;8.066;2023-07-29T11:26:00;2.97;;;2.67;;
76176;SDS011;64938;47.696;8.066;2023-07-29T11:28:37;2.97;;;2.67;;
76176;SDS011;64938;47.696;8.066;2023-07-29T11:31:03;2.60;;;2.40;;
76176;SDS011;64938;47.696;8.066;2023-07-29T11:33:38;2.80;;;2.60;;
76176;SDS011;64938;47.696;8.066;2023-07-29T11:36:06;2.73;;;2.53;;
76176;SDS011;64938;47.696;8.066;2023-07-29T11:38:31;3.37;;;3.07;;
76176;SDS011;64938;47.696;8.066;2023-07-29T11:41:07;5.37;;;2.67;;
76176;SDS011;64938;47.696;8.066;2023-07-29T11:43:35;4.03;;;3.03;;
76176;SDS011;64938;47.696;8.066;2023-07-29T11:46:01;3.00;;;2.80;;
76176;SDS011;64938;47.696;8.066;2023-07-29T11:48:32;4.77;;;2.97;;
76176;SDS011;64938;47.696;8.066;2023-07-29T11:51:00;3.23;;;3.03;;
76176;SDS011;64938;47.696;8.066;2023-07-29T11:53:29;3.50;;;3.20;;
76176;SDS011;64938;47.696;8.066;2023-07-29T11:55:55;2.93;;;2.73;;
76176;SDS011;64938;47.696;8.066;2023-07-29T11:58:21;3.00;;;2.80;;
76176;SDS011;64938;47.696;8.066;2023-07-29T12:00:50;3.50;;;3.20;;
76176;SDS011;64938;47.696;8.066;2023-07-29T12:03:16;2.97;;;2.77;;
76176;SDS011;64938;47.696;8.066;2023-07-29T12:05:43;3.00;;;2.80;;
76176;SDS011;64938;47.696;8.066;2023-07-29T12:08:09;3.00;;;2.80;;
76176;SDS011;64938;47.696;8.066;2023-07-29T12:10:35;3.10;;;2.90;;
76176;SDS011;64938;47.696;8.066;2023-07-29T12:13:01;2.93;;;2.73;;
76176;SDS011;64938;47.696;8.066;2023-07-29T12:15:30;3.33;;;3.10;;
76176;SDS011;64938;47.696;8.066;2023-07-29T12:18:01;3.10;;;2.80;;
76176;SDS011;64938;47.696;8.066;2023-07-29T12:20:29;3.30;;;3.00;;
76176;SDS011;64938;47.696;8.066;2023-07-29T12:22:56;4.40;;;2.50;;
76176;SDS011;64938;47.696;8.066;2023-07-29T12:25:23;3.70;;;3.40;;
76176;SDS011;64938;47.696;8.066;2023-07-29T12:27:50;3.30;;;3.10;;
76176;SDS011;64938;47.696;8.066;2023-07-29T12:30:16;3.90;;;2.87;;
76176;SDS011;64938;47.696;8.066;2023-07-29T12:32:46;5.90;;;3.27;;
76176;SDS011;64938;47.696;8.066;2023-07-29T12:35:12;3.10;;;2.90;;
76176;SDS011;64938;47.696;8.066;2023-07-29T12:37:38;3.50;;;3.20;;
76176;SDS011;64938;47.696;8.066;2023-07-29T12:40:07;3.10;;;2.80;;
76176;SDS011;64938;47.696;8.066;2023-07-29T12:54:41;2.80;;;2.60;;
76176;SDS011;64938;47.696;8.066;2023-07-29T12:57:28;3.10;;;2.90;;
76176;SDS011;64938;47.696;8.066;2023-07-29T12:59:56;3.40;;;3.10;;
76176;SDS011;64938;47.696;8.066;2023-07-29T13:02:21;3.43;;;3.13;;
76176;SDS011;64938;47.696;8.066;2023-07-29T13:11:56;3.53;;;3.23;;
76176;SDS011;64938;47.696;8.066;2023-07-29T13:39:21;3.07;;;2.77;;
76176;SDS011;64938;47.696;8.066;2023-07-29T13:41:56;3.20;;;2.90;;
76176;SDS011;64938;47.696;8.066;2023-07-29T13:45:36;2.90;;;2.67;;
76176;SDS011;64938;47.696;8.066;2023-07-29T13:52:51;2.77;;;2.57;;
76176;SDS011;64938;47.696;8.066;2023-07-29T13:56:07;2.70;;;2.50;;
76176;SDS011;64938;47.696;8.066;2023-07-29T13:58:34;3.37;;;2.60;;
76176;SDS011;64938;47.696;8.066;2023-07-29T14:01:00;3.30;;;2.97;;
76176;SDS011;64938;47.696;8.066;2023-07-29T14:11:20;2.90;;;2.70;;
76176;SDS011;64938;47.696;8.066;2023-07-29T14:13:54;4.30;;;2.97;;
76176;SDS011;64938;47.696;8.066;2023-07-29T14:16:19;3.93;;;3.53;;
76176;SDS011;64938;47.696;8.066;2023-07-29T14:18:45;4.57;;;3.00;;
76176;SDS011;64938;47.696;8.066;2023-07-29T14:21:10;3.67;;;3.37;;
76176;SDS011;64938;47.696;8.066;2023-07-29T14:23:36;3.57;;;3.30;;
76176;SDS011;64938;47.696;8.066;2023-07-29T14:26:06;4.10;;;3.80;;
76176;SDS011;64938;47.696;8.066;2023-07-29T14:29:27;3.60;;;3.30;;
76176;SDS011;64938;47.696;8.066;2023-07-29T14:31:54;4.33;;;4.00;;
76176;SDS011;64938;47.696;8.066;2023-07-29T14:34:40;4.33;;;4.03;;
76176;SDS011;64938;47.696;8.066;2023-07-29T14:37:07;4.57;;;4.23;;
76176;SDS011;64938;47.696;8.066;2023-07-29T14:39:38;4.80;;;4.40;;
76176;SDS011;64938;47.696;8.066;2023-07-29T14:53:46;6.77;;;5.10;;
76176;SDS011;64938;47.696;8.066;2023-07-29T14:57:09;5.27;;;4.87;;
76176;SDS011;64938;47.696;8.066;2023-07-29T15:07:21;5.07;;;4.47;;
76176;SDS011;64938;47.696;8.066;2023-07-29T15:14:25;4.63;;;4.33;;
76176;SDS011;64938;47.696;8.066;2023-07-29T15:16:51;3.93;;;3.50;;
76176;SDS011;64938;47.696;8.066;2023-07-29T15:19:34;4.33;;;3.80;;
76176;SDS011;64938;47.696;8.066;2023-07-29T15:23:06;3.73;;;3.43;;
76176;SDS011;64938;47.696;8.066;2023-07-29T15:30:08;3.97;;;3.67;;
76176;SDS011;64938;47.696;8.066;2023-07-29T15:32:34;4.20;;;3.90;;
76176;SDS011;64938;47.696;8.066;2023-07-29T15:38:49;4.27;;;3.90;;
76176;SDS011;64938;47.696;8.066;2023-07-29T15:41:16;5.23;;;4.83;;
76176;SDS011;64938;47.696;8.066;2023-07-29T15:43:42;4.20;;;3.90;;
76176;SDS011;64938;47.696;8.066;2023-07-29T15:46:08;5.03;;;4.63;;
76176;SDS011;64938;47.696;8.066;2023-07-29T15:48:33;5.23;;;4.73;;
76176;SDS011;64938;47.696;8.066;2023-07-29T15:50:59;4.50;;;4.20;;
76176;SDS011;64938;47.696;8.066;2023-07-29T15:53:25;4.80;;;4.40;;
76176;SDS011;64938;47.696;8.066;2023-07-29T15:55:51;5.20;;;4.70;;
76176;SDS011;64938;47.696;8.066;2023-07-29T15:58:17;4.50;;;4.10;;
76176;SDS011;64938;47.696;8.066;2023-07-29T16:00:42;4.80;;;4.40;;
76176;SDS011;64938;47.696;8.066;2023-07-29T16:03:08;4.30;;;4.00;;
76176;SDS011;64938;47.696;8.066;2023-07-29T16:05:34;4.70;;;4.20;;
76176;SDS011;64938;47.696;8.066;2023-07-29T16:08:03;4.70;;;4.30;;
76176;SDS011;64938;47.696;8.066;2023-07-29T16:10:28;4.20;;;3.90;;
76176;SDS011;64938;47.696;8.066;2023-07-29T16:13:00;4.30;;;4.00;;
76176;SDS011;64938;47.696;8.066;2023-07-29T16:15:28;4.47;;;4.07;;
76176;SDS011;64938;47.696;8.066;2023-07-29T16:17:54;4.70;;;4.30;;
76176;SDS011;64938;47.696;8.066;2023-07-29T16:20:20;4.00;;;3.70;;
76176;SDS011;64938;47.696;8.066;2023-07-29T16:22:45;5.03;;;4.17;;
76176;SDS011;64938;47.696;8.066;2023-07-29T16:25:11;4.20;;;3.80;;
76176;SDS011;64938;47.696;8.066;2023-07-29T16:27:37;4.77;;;4.20;;
76176;SDS011;64938;47.696;8.066;2023-07-29T16:30:03;4.60;;;4.10;;
76176;SDS011;64938;47.696;8.066;2023-07-29T16:32:30;4.00;;;3.70;;